createdAt,value
2022-12-15T00:02:02.710Z,14.20
2022-12-15T00:05:08.334Z,14.88
2022-12-15T00:08:12.110Z,15.30
2022-12-15T00:11:16.406Z,14.80
2022-12-15T00:14:20.255Z,14.32
2022-12-15T00:17:23.988Z,14.60
2022-12-15T00:20:29.362Z,14.30
2022-12-15T00:23:33.137Z,13.98
2022-12-15T00:26:37.064Z,13.82
2022-12-15T00:29:40.793Z,14.88
2022-12-15T00:32:44.443Z,14.63
2022-12-15T00:35:49.721Z,14.13
2022-12-15T00:38:41.824Z,15.32
2022-12-15T00:41:27.380Z,13.88
2022-12-15T00:44:17.274Z,14.45
2022-12-15T00:47:05.842Z,14.97
2022-12-15T00:50:10.316Z,14.00
2022-12-15T00:53:15.669Z,14.55
2022-12-15T00:56:19.217Z,15.07
2022-12-15T00:59:23.087Z,13.35
2022-12-15T01:02:26.804Z,14.40
2022-12-15T01:05:31.376Z,15.48
2022-12-15T01:08:36.541Z,13.63
2022-12-15T01:11:40.256Z,14.43
2022-12-15T01:14:45.200Z,15.30
2022-12-15T01:17:48.889Z,14.77
2022-12-15T01:20:34.708Z,14.13
2022-12-15T01:23:21.419Z,14.75
2022-12-15T01:26:07.576Z,14.82
2022-12-15T01:28:52.966Z,14.90
2022-12-15T01:31:38.293Z,13.67
2022-12-15T01:34:23.720Z,14.50
2022-12-15T01:37:08.883Z,14.80
2022-12-15T01:40:14.115Z,14.77
2022-12-15T01:43:00.523Z,15.65
2022-12-15T01:46:00.349Z,13.83
2022-12-15T01:48:49.203Z,15.93
2022-12-15T01:51:39.679Z,16.02
2022-12-15T01:54:30.018Z,15.38
2022-12-15T01:57:22.581Z,15.90
2022-12-15T02:00:09.765Z,14.77
2022-12-15T02:02:56.598Z,16.23
2022-12-15T02:05:42.786Z,15.68
2022-12-15T02:08:29.242Z,15.35
2022-12-15T02:11:39.272Z,15.20
2022-12-15T02:14:40.240Z,14.90
2022-12-15T02:17:36.041Z,14.80
2022-12-15T02:20:37.511Z,15.40
2022-12-15T02:23:56.202Z,14.38
2022-12-15T02:27:16.990Z,15.13
2022-12-15T02:30:18.674Z,14.63
2022-12-15T02:33:11.607Z,15.70
2022-12-15T02:36:00.226Z,14.75
2022-12-15T02:38:45.680Z,14.25
2022-12-15T02:41:37.267Z,14.73
2022-12-15T02:44:26.558Z,14.33
2022-12-15T02:47:28.219Z,15.38
2022-12-15T02:50:31.044Z,15.15
2022-12-15T02:53:33.332Z,15.52
2022-12-15T02:56:25.823Z,15.98
2022-12-15T02:59:19.573Z,15.70
2022-12-15T03:02:06.611Z,15.15
2022-12-15T03:04:53.982Z,15.13
2022-12-15T03:07:39.548Z,14.75
2022-12-15T03:10:25.814Z,15.25
2022-12-15T03:13:11.194Z,15.30
2022-12-15T03:15:58.275Z,14.23
2022-12-15T03:18:43.869Z,15.90
2022-12-15T03:21:30.531Z,15.27
2022-12-15T03:24:15.791Z,15.75
2022-12-15T03:27:01.486Z,14.67
2022-12-15T03:29:47.186Z,14.85
2022-12-15T03:32:32.426Z,14.50
2022-12-15T03:35:17.870Z,15.57
2022-12-15T03:38:04.515Z,15.13
2022-12-15T03:40:49.955Z,14.50
2022-12-15T03:43:35.273Z,15.35
2022-12-15T03:46:20.618Z,14.40
2022-12-15T03:49:07.019Z,14.40
2022-12-15T03:51:52.357Z,15.10
2022-12-15T03:54:38.860Z,15.07
2022-12-15T03:57:24.312Z,14.77
2022-12-15T04:00:15.122Z,14.00
2022-12-15T04:03:00.437Z,14.70
2022-12-15T04:05:46.150Z,15.48
2022-12-15T04:08:31.395Z,15.07
2022-12-15T04:11:18.135Z,15.48
2022-12-15T04:14:03.428Z,15.05
2022-12-15T04:16:48.712Z,14.93
2022-12-15T04:19:52.398Z,15.50
2022-12-15T04:22:38.781Z,15.13
2022-12-15T04:25:44.008Z,15.07
2022-12-15T04:28:49.510Z,15.43
2022-12-15T04:31:53.146Z,14.52
2022-12-15T04:34:56.985Z,15.63
2022-12-15T04:38:00.912Z,14.37
2022-12-15T04:41:04.595Z,15.50
2022-12-15T04:44:09.606Z,15.00
2022-12-15T04:47:14.208Z,15.65
2022-12-15T04:50:17.849Z,15.60
2022-12-15T04:53:29.794Z,15.87
2022-12-15T04:56:35.115Z,14.93
2022-12-15T04:59:40.288Z,16.50
2022-12-15T05:02:44.185Z,16.27
2022-12-15T05:05:47.874Z,16.45
2022-12-15T05:08:51.478Z,16.00
2022-12-15T05:11:56.197Z,17.15
2022-12-15T05:15:01.721Z,15.98
2022-12-15T05:18:05.509Z,15.85
2022-12-15T05:21:09.826Z,17.33
2022-12-15T05:24:13.476Z,16.40
2022-12-15T05:27:17.409Z,17.35
2022-12-15T05:30:22.761Z,19.13
2022-12-15T05:33:08.301Z,17.83
2022-12-15T05:35:56.883Z,19.58
2022-12-15T05:38:42.157Z,22.03
2022-12-15T05:41:27.575Z,23.35
2022-12-15T05:44:13.143Z,25.23
2022-12-15T05:47:00.173Z,24.13
2022-12-15T05:49:45.439Z,25.33
2022-12-15T05:52:30.619Z,25.13
2022-12-15T05:55:16.237Z,25.50
2022-12-15T05:58:01.783Z,26.27
2022-12-15T06:00:47.140Z,25.67
2022-12-15T06:03:34.411Z,27.98
2022-12-15T06:06:20.675Z,27.13
2022-12-15T06:09:06.586Z,28.95
2022-12-15T06:11:52.415Z,27.40
2022-12-15T06:14:38.181Z,26.40
2022-12-15T06:17:23.713Z,27.05
2022-12-15T06:20:11.514Z,25.57
2022-12-15T06:22:57.584Z,26.17
2022-12-15T06:25:43.371Z,24.92
2022-12-15T06:28:29.533Z,25.65
2022-12-15T06:31:17.777Z,25.88
2022-12-15T06:34:05.195Z,26.07
2022-12-15T06:36:51.951Z,27.02
2022-12-15T06:39:37.614Z,27.13
2022-12-15T06:42:22.981Z,26.95
2022-12-15T06:45:09.349Z,26.73
2022-12-15T06:48:01.018Z,27.83
2022-12-15T06:50:47.263Z,28.33
2022-12-15T06:53:38.658Z,29.02
2022-12-15T06:56:32.422Z,27.55
2022-12-15T06:59:19.037Z,27.98
2022-12-15T07:02:04.332Z,28.97
2022-12-15T07:04:50.041Z,30.42
2022-12-15T07:07:35.249Z,31.27
2022-12-15T07:10:22.943Z,29.95
2022-12-15T07:13:09.893Z,29.00
2022-12-15T07:15:59.303Z,30.67
2022-12-15T07:18:44.695Z,28.92
2022-12-15T07:21:30.891Z,29.40
2022-12-15T07:24:16.215Z,30.75
2022-12-15T07:27:02.852Z,28.67
2022-12-15T07:29:48.482Z,28.37
2022-12-15T07:32:34.169Z,27.15
2022-12-15T07:35:19.813Z,27.98
2022-12-15T07:38:07.160Z,26.90
2022-12-15T07:40:52.332Z,25.90
2022-12-15T07:43:39.226Z,26.60
2022-12-15T07:46:26.101Z,25.73
2022-12-15T07:49:11.541Z,24.58
2022-12-15T07:51:58.533Z,27.05
2022-12-15T07:54:45.350Z,26.17
2022-12-15T07:57:32.867Z,25.30
2022-12-15T08:00:20.056Z,24.80
2022-12-15T08:03:05.425Z,25.70
2022-12-15T08:05:51.259Z,25.50
2022-12-15T08:08:37.115Z,26.08
2022-12-15T08:11:25.020Z,25.90
2022-12-15T08:14:17.109Z,24.40
2022-12-15T08:17:04.753Z,25.48
2022-12-15T08:19:50.583Z,23.80
2022-12-15T08:22:36.713Z,25.48
2022-12-15T08:25:21.873Z,24.63
2022-12-15T08:28:07.165Z,24.45
2022-12-15T08:30:52.420Z,25.05
2022-12-15T08:33:39.840Z,24.70
2022-12-15T08:36:25.318Z,25.10
2022-12-15T08:39:10.551Z,23.97
2022-12-15T08:41:56.356Z,25.42
2022-12-15T08:44:41.973Z,24.25
2022-12-15T08:47:27.282Z,24.92
2022-12-15T08:50:13.804Z,25.90
2022-12-15T08:53:29.089Z,25.83
2022-12-15T08:56:06.214Z,25.23
2022-12-15T08:58:56.588Z,27.17
2022-12-15T09:01:43.504Z,27.48
2022-12-15T09:04:28.958Z,27.50
2022-12-15T09:07:16.243Z,26.53
2022-12-15T09:10:01.575Z,25.52
2022-12-15T09:12:47.031Z,26.45
2022-12-15T09:16:07.134Z,26.02
2022-12-15T09:18:38.028Z,24.27
2022-12-15T09:21:26.336Z,24.00
2022-12-15T09:24:22.121Z,24.10
2022-12-15T09:27:10.236Z,24.67
2022-12-15T09:29:55.567Z,23.92
2022-12-15T09:32:40.879Z,23.20
2022-12-15T09:35:26.846Z,22.53
2022-12-15T09:38:12.520Z,22.85
2022-12-15T09:41:07.007Z,23.40
2022-12-15T09:43:56.897Z,24.42
2022-12-15T09:46:53.608Z,23.73
2022-12-15T09:49:53.305Z,22.83
2022-12-15T09:52:46.673Z,24.38
2022-12-15T09:55:33.169Z,24.55
2022-12-15T09:58:31.797Z,24.83
2022-12-15T10:01:26.530Z,25.45
2022-12-15T10:04:18.745Z,25.53
2022-12-15T10:07:11.995Z,25.45
2022-12-15T10:09:57.491Z,26.00
2022-12-15T10:12:55.305Z,25.63
2022-12-15T10:15:53.258Z,24.92
2022-12-15T10:18:45.719Z,24.30
2022-12-15T10:21:36.624Z,23.48
2022-12-15T10:27:54.644Z,23.35
2022-12-15T10:30:45.842Z,24.35
2022-12-15T10:33:35.999Z,24.87
2022-12-15T10:36:21.986Z,23.60
2022-12-15T10:39:07.436Z,25.20
2022-12-15T10:42:13.669Z,23.52
2022-12-15T10:44:59.916Z,24.73
2022-12-15T10:47:59.132Z,25.30
2022-12-15T10:50:47.092Z,24.75
2022-12-15T10:53:41.588Z,26.00
2022-12-15T10:56:33.148Z,23.45
2022-12-15T10:59:25.423Z,24.52
2022-12-15T11:02:34.526Z,25.00
2022-12-15T11:05:20.672Z,24.88
2022-12-15T11:08:17.221Z,24.05
2022-12-15T11:11:25.984Z,23.85
2022-12-15T11:14:14.768Z,24.40
2022-12-15T11:17:00.138Z,23.60
2022-12-15T11:19:56.751Z,23.27
2022-12-15T11:22:52.110Z,24.23
2022-12-15T11:25:42.949Z,24.30
2022-12-15T11:28:38.701Z,25.52
2022-12-15T11:31:31.674Z,26.47
2022-12-15T11:34:20.524Z,24.30
2022-12-15T11:37:34.256Z,26.08
2022-12-15T11:40:33.117Z,26.95
2022-12-15T11:43:51.108Z,25.98
2022-12-15T11:46:43.175Z,27.50
2022-12-15T11:49:44.423Z,26.25
2022-12-15T11:52:44.955Z,28.15
2022-12-15T11:55:41.421Z,27.20
2022-12-15T11:58:50.666Z,27.67
2022-12-15T12:01:58.852Z,27.13
2022-12-15T12:05:04.618Z,26.65
2022-12-15T12:07:53.756Z,27.33
2022-12-15T12:10:48.976Z,28.55
2022-12-15T12:13:43.130Z,28.20
2022-12-15T12:16:38.460Z,27.40
2022-12-15T12:19:30.847Z,28.60
2022-12-15T12:22:24.164Z,28.13
2022-12-15T12:25:15.407Z,27.92
2022-12-15T12:28:04.129Z,28.13
2022-12-15T12:30:50.601Z,27.23
2022-12-15T12:33:40.909Z,28.88
2022-12-15T12:36:27.738Z,28.40
2022-12-15T12:39:18.629Z,27.17
2022-12-15T12:42:10.271Z,28.63
2022-12-15T12:44:56.104Z,27.67
2022-12-15T12:47:47.509Z,27.52
2022-12-15T12:50:34.202Z,28.52
2022-12-15T12:53:32.567Z,28.30
2022-12-15T12:56:37.891Z,28.33
2022-12-15T12:59:38.603Z,27.57
2022-12-15T13:02:46.853Z,27.55
2022-12-15T13:05:34.179Z,28.73
2022-12-15T13:08:45.272Z,26.35
2022-12-15T13:12:03.190Z,29.40
2022-12-15T13:14:54.718Z,27.07
2022-12-15T13:17:44.046Z,27.38
2022-12-15T13:20:32.757Z,28.90
2022-12-15T13:23:40.281Z,27.67
2022-12-15T13:26:31.468Z,27.50
2022-12-15T13:29:21.721Z,26.57
2022-12-15T13:32:28.903Z,28.90
2022-12-15T13:35:23.571Z,28.88
2022-12-15T13:38:17.496Z,27.42
2022-12-15T13:41:22.604Z,26.52
2022-12-15T13:44:15.406Z,26.80
2022-12-15T13:47:09.553Z,26.77
2022-12-15T13:50:01.806Z,27.02
2022-12-15T13:56:20.041Z,27.92
2022-12-15T13:59:12.578Z,25.67
2022-12-15T14:01:58.130Z,28.30
2022-12-15T14:04:44.353Z,28.95
2022-12-15T14:07:29.660Z,27.80
2022-12-15T14:10:21.081Z,28.15
2022-12-15T14:13:16.123Z,27.60
2022-12-15T14:16:05.966Z,27.42
2022-12-15T14:19:04.647Z,29.85
2022-12-15T14:21:52.393Z,29.42
2022-12-15T14:24:49.486Z,30.02
2022-12-15T14:27:36.321Z,28.67
2022-12-15T14:30:26.654Z,30.10
2022-12-15T14:33:16.042Z,29.55
2022-12-15T14:36:04.708Z,29.65
2022-12-15T14:38:52.751Z,31.42
2022-12-15T14:41:45.259Z,30.77
2022-12-15T14:44:39.068Z,30.67
2022-12-15T14:47:30.990Z,29.77
2022-12-15T14:53:31.110Z,30.27
2022-12-15T14:59:34.944Z,30.30
2022-12-15T15:02:23.282Z,29.48
2022-12-15T15:03:10.677Z,23.70
2022-12-15T15:03:16.102Z,29.27
2022-12-15T15:05:27.383Z,27.23
2022-12-15T15:08:15.561Z,29.02
2022-12-15T15:11:04.786Z,27.27
2022-12-15T15:13:56.187Z,28.10
2022-12-15T15:16:43.012Z,27.30
2022-12-15T15:19:28.941Z,28.52
2022-12-15T15:22:31.353Z,29.48
2022-12-15T15:25:27.590Z,29.77
2022-12-15T15:28:20.525Z,27.52
2022-12-15T15:31:32.655Z,28.88
2022-12-15T15:34:21.908Z,27.13
2022-12-15T15:37:18.349Z,29.33
2022-12-15T15:40:10.848Z,26.37
2022-12-15T15:42:56.205Z,28.13
2022-12-15T15:45:41.957Z,28.63
2022-12-15T15:48:30.973Z,28.27
2022-12-15T15:51:16.538Z,29.13
2022-12-15T15:54:05.688Z,29.83
2022-12-15T15:56:52.749Z,29.35
2022-12-15T15:59:42.366Z,30.45
2022-12-15T16:02:28.087Z,29.92
2022-12-15T16:05:14.036Z,28.80
2022-12-15T16:08:00.791Z,31.97
2022-12-15T16:10:47.999Z,30.98
2022-12-15T16:13:34.730Z,31.38
2022-12-15T16:16:24.905Z,31.88
2022-12-15T16:19:12.208Z,33.22
2022-12-15T16:21:57.621Z,32.40
2022-12-15T16:24:43.188Z,32.25
2022-12-15T16:27:28.755Z,33.35
2022-12-15T16:30:21.353Z,33.17
2022-12-15T16:33:06.878Z,34.53
2022-12-15T16:35:53.561Z,32.23
2022-12-15T16:38:39.235Z,33.40
2022-12-15T16:41:27.719Z,33.95
2022-12-15T16:44:15.603Z,33.35
2022-12-15T16:47:02.528Z,32.60
2022-12-15T16:49:48.220Z,34.13
2022-12-15T16:52:33.476Z,33.90
2022-12-15T16:55:21.729Z,33.85
2022-12-15T16:58:10.690Z,33.20
2022-12-15T17:00:56.736Z,35.25
2022-12-15T17:03:43.673Z,37.03
2022-12-15T17:06:30.330Z,36.22
2022-12-15T17:09:21.211Z,35.03
2022-12-15T17:12:09.484Z,34.42
2022-12-15T17:14:55.229Z,36.47
2022-12-15T17:17:41.401Z,35.17
2022-12-15T17:20:30.904Z,34.95
2022-12-15T17:23:19.306Z,37.08
2022-12-15T17:26:28.632Z,35.63
2022-12-15T17:29:16.063Z,37.90
2022-12-15T17:32:05.225Z,36.00
2022-12-15T17:34:50.778Z,36.05
2022-12-15T17:37:40.899Z,35.97
2022-12-15T17:40:26.594Z,33.88
2022-12-15T17:43:13.946Z,35.72
2022-12-15T17:45:59.545Z,32.47
2022-12-15T17:48:46.394Z,32.53
2022-12-15T17:51:32.304Z,31.23
2022-12-15T17:54:19.995Z,32.63
2022-12-15T17:57:05.829Z,32.03
2022-12-15T17:59:51.427Z,33.27
2022-12-15T18:02:37.254Z,31.58
2022-12-15T18:05:24.879Z,31.90
2022-12-15T18:08:15.787Z,30.90
2022-12-15T18:11:03.411Z,30.83
2022-12-15T18:13:48.909Z,29.40
2022-12-15T18:16:34.128Z,29.55
2022-12-15T18:19:21.094Z,31.33
2022-12-15T18:22:12.129Z,31.92
2022-12-15T18:24:59.288Z,31.00
2022-12-15T18:27:47.332Z,30.90
2022-12-15T18:30:32.809Z,31.88
2022-12-15T18:33:19.148Z,31.83
2022-12-15T18:36:06.077Z,30.63
2022-12-15T18:38:53.139Z,30.30
2022-12-15T18:41:41.563Z,31.57
2022-12-15T18:44:31.845Z,31.05
2022-12-15T18:47:18.650Z,31.90
2022-12-15T18:50:04.672Z,30.23
2022-12-15T18:52:56.451Z,31.00
2022-12-15T18:55:42.624Z,29.87
2022-12-15T18:58:30.766Z,31.15
2022-12-15T19:01:17.937Z,30.88
2022-12-15T19:04:04.380Z,30.00
2022-12-15T19:06:50.585Z,30.15
2022-12-15T19:09:38.229Z,29.90
2022-12-15T19:12:27.480Z,30.50
2022-12-15T19:15:16.813Z,30.33
2022-12-15T19:18:22.051Z,29.45
2022-12-15T19:21:35.276Z,31.83
2022-12-15T19:24:45.170Z,29.70
2022-12-15T19:27:30.805Z,29.90
2022-12-15T19:30:19.780Z,30.98
2022-12-15T19:33:07.168Z,30.00
2022-12-15T19:35:55.783Z,32.20
2022-12-15T19:38:42.539Z,33.73
2022-12-15T19:41:28.103Z,32.85
2022-12-15T19:44:15.613Z,33.30
2022-12-15T19:47:01.721Z,32.50
2022-12-15T19:49:49.277Z,34.05
2022-12-15T19:52:38.399Z,32.53
2022-12-15T19:55:28.575Z,33.70
2022-12-15T19:58:27.710Z,32.78
2022-12-15T20:01:16.910Z,32.78
2022-12-15T20:04:02.500Z,34.55
2022-12-15T20:06:51.397Z,33.97
2022-12-15T20:09:37.035Z,33.58
2022-12-15T20:12:23.048Z,34.05
2022-12-15T20:15:15.762Z,34.63
2022-12-15T20:18:02.761Z,34.20
2022-12-15T20:20:49.870Z,34.47
2022-12-15T20:23:43.773Z,32.15
2022-12-15T20:26:30.979Z,33.75
2022-12-15T20:29:23.345Z,30.75
2022-12-15T20:32:15.253Z,32.60
2022-12-15T20:35:01.672Z,30.67
2022-12-15T20:37:48.461Z,30.38
2022-12-15T20:40:35.668Z,30.35
2022-12-15T20:43:22.365Z,30.63
2022-12-15T20:46:14.726Z,31.00
2022-12-15T20:49:00.908Z,29.40
2022-12-15T20:51:49.425Z,29.88
2022-12-15T20:54:35.972Z,30.52
2022-12-15T20:57:25.032Z,29.33
2022-12-15T21:00:13.457Z,29.42
2022-12-15T21:02:59.883Z,29.40
2022-12-15T21:05:46.061Z,29.35
2022-12-15T21:08:32.245Z,28.55
2022-12-15T21:11:19.856Z,28.30
2022-12-15T21:14:16.384Z,27.83
2022-12-15T21:17:01.915Z,27.63
2022-12-15T21:19:48.911Z,27.27
2022-12-15T21:22:34.468Z,26.63
2022-12-15T21:25:26.316Z,28.85
2022-12-15T21:28:13.515Z,27.77
2022-12-15T21:31:00.362Z,26.73
2022-12-15T21:33:47.196Z,25.52
2022-12-15T21:36:32.976Z,27.85
2022-12-15T21:39:23.503Z,26.77
2022-12-15T21:42:15.991Z,24.13
2022-12-15T21:45:01.337Z,25.00
2022-12-15T21:48:07.671Z,24.23
2022-12-15T21:50:53.631Z,24.50
2022-12-15T21:53:40.047Z,23.15
2022-12-15T21:56:26.058Z,23.63
2022-12-15T21:59:14.220Z,23.17
2022-12-15T22:02:00.490Z,21.30
2022-12-15T22:04:48.883Z,22.40
2022-12-15T22:07:34.625Z,21.23
2022-12-15T22:10:20.096Z,21.17
2022-12-15T22:13:06.510Z,22.60
2022-12-15T22:15:52.031Z,21.00
2022-12-15T22:18:37.752Z,20.40
2022-12-15T22:21:25.323Z,19.27
2022-12-15T22:24:10.859Z,19.45
2022-12-15T22:26:56.630Z,18.27
2022-12-15T22:29:41.994Z,17.45
2022-12-15T22:32:27.358Z,18.98
2022-12-15T22:35:17.123Z,18.67
2022-12-15T22:38:03.734Z,18.58
2022-12-15T22:40:51.416Z,18.67
2022-12-15T22:43:39.683Z,17.15
2022-12-15T22:46:25.437Z,18.98
2022-12-15T22:49:14.953Z,17.55
2022-12-15T22:52:00.598Z,19.75
2022-12-15T22:54:48.058Z,18.87
2022-12-15T22:57:33.330Z,18.55
2022-12-15T23:00:18.796Z,18.33
2022-12-15T23:03:04.849Z,18.13
2022-12-15T23:05:50.310Z,16.98
2022-12-15T23:08:36.968Z,17.07
2022-12-15T23:11:39.185Z,16.48
2022-12-15T23:14:44.367Z,15.65
2022-12-15T23:17:29.955Z,17.05
2022-12-15T23:20:15.339Z,16.48
2022-12-15T23:23:01.023Z,14.87
2022-12-15T23:25:46.921Z,15.52
2022-12-15T23:28:34.515Z,14.35
2022-12-15T23:31:20.556Z,14.65
2022-12-15T23:34:06.317Z,14.40
2022-12-15T23:36:51.617Z,13.77
2022-12-15T23:39:36.938Z,14.15
2022-12-15T23:42:22.218Z,13.48
2022-12-15T23:45:10.302Z,14.18
2022-12-15T23:47:55.678Z,13.90
2022-12-15T23:50:40.933Z,13.23
2022-12-15T23:53:26.158Z,12.50
2022-12-15T23:56:13.392Z,14.10
2022-12-15T23:58:59.406Z,12.77
